PWSweather.com
Personal Weather Stations
Station Observations
LOBIOS
Galicia, LobiosES

GaliciaLobiosES

Lat: 41.895, Lon: -8.091667

Elevation: 1597

Station Type: Automática/Davis Vantage Pro2 Plus

www.meteolobios.es

High Low Average
Temperature 55.8°F13.2°C 47.2°F8.4°C 51.6°F10.9°C
Dew Point 51.4°F10.8°C 45.8°F7.7°C 48.8°F9.3°C
Winds 4.6 mph 7.4 kmh Calm Calm 1.0 mph S1.6 kmh S
Wind Gusts 8.1 mph13.0 kmh -- 1.0 mph1.6 kmh
Humidity 95% 81% 90%
Pressure 30.52 in1033.5 mb 30.44 in1030.8 mb -
Precipitation 0.00 in0.0 mm - -
Hour Temp Dew Point Humidity Winds Wind Gusts Pressure Precip Precip Rate Daily Precip Total
12:00 AM 50.5°F10.3°C 49.1°F9.5°C 95% Calm Calm -- 30.52 in1033.5 mb - 0.00 in0.0 mm 0.00 in0.0 mm
12:10 AM 50.4°F10.2°C 49.0°F9.4°C 95% 1.1 mph W1.8 kmh W 2.3 mph3.7 kmh 30.52 in1033.5 mb - 0.00 in0.0 mm 0.00 in0.0 mm
12:20 AM 50.4°F10.2°C 49.0°F9.4°C 95% 2.3 mph SW3.7 kmh SW 3.5 mph5.6 kmh 30.52 in1033.5 mb - 0.00 in0.0 mm 0.00 in0.0 mm
12:30 AM 50.4°F10.2°C 49.0°F9.4°C 95% 3.5 mph SW5.6 kmh SW 4.6 mph7.4 kmh 30.52 in1033.5 mb - 0.00 in0.0 mm 0.00 in0.0 mm
12:40 AM 50.4°F10.2°C 49.0°F9.4°C 95% Calm Calm -- 30.51 in1033.2 mb - 0.00 in0.0 mm 0.00 in0.0 mm
12:50 AM 50.4°F10.2°C 49.0°F9.4°C 95% Calm Calm -- 30.51 in1033.2 mb - 0.00 in0.0 mm 0.00 in0.0 mm
01:00 AM 50.4°F10.2°C 49.0°F9.4°C 95% Calm Calm -- 30.51 in1033.2 mb - 0.00 in0.0 mm 0.00 in0.0 mm
01:10 AM 50.4°F10.2°C 49.0°F9.4°C 95% Calm Calm -- 30.51 in1033.2 mb - 0.00 in0.0 mm 0.00 in0.0 mm
01:20 AM 50.4°F10.2°C 49.0°F9.4°C 95% Calm Calm -- 30.51 in1033.2 mb - 0.00 in0.0 mm 0.00 in0.0 mm
01:30 AM 50.4°F10.2°C 49.0°F9.4°C 95% Calm Calm -- 30.51 in1033.2 mb - 0.00 in0.0 mm 0.00 in0.0 mm
01:40 AM 50.4°F10.2°C 49.0°F9.4°C 95% Calm Calm -- 30.51 in1033.2 mb - 0.00 in0.0 mm 0.00 in0.0 mm
01:50 AM 50.4°F10.2°C 49.0°F9.4°C 95% Calm Calm -- 30.51 in1033.2 mb - 0.00 in0.0 mm 0.00 in0.0 mm
02:00 AM 50.4°F10.2°C 49.0°F9.4°C 95% Calm Calm -- 30.51 in1033.2 mb - 0.00 in0.0 mm 0.00 in0.0 mm
02:10 AM 50.4°F10.2°C 49.0°F9.4°C 95% Calm Calm -- 30.51 in1033.2 mb - 0.00 in0.0 mm 0.00 in0.0 mm
02:20 AM 50.4°F10.2°C 49.0°F9.4°C 95% Calm Calm -- 30.51 in1033.2 mb - 0.00 in0.0 mm 0.00 in0.0 mm
02:30 AM 50.4°F10.2°C 49.0°F9.4°C 95% Calm Calm -- 30.51 in1033.2 mb - 0.00 in0.0 mm 0.00 in0.0 mm
02:40 AM 50.4°F10.2°C 49.0°F9.4°C 95% Calm Calm -- 30.51 in1033.2 mb - 0.00 in0.0 mm 0.00 in0.0 mm
02:50 AM 50.4°F10.2°C 49.0°F9.4°C 95% Calm Calm -- 30.51 in1033.2 mb - 0.00 in0.0 mm 0.00 in0.0 mm
03:00 AM 50.4°F10.2°C 49.0°F9.4°C 95% Calm Calm -- 30.51 in1033.2 mb - 0.00 in0.0 mm 0.00 in0.0 mm
03:10 AM 50.4°F10.2°C 49.0°F9.4°C 95% Calm Calm -- 30.51 in1033.2 mb - 0.00 in0.0 mm 0.00 in0.0 mm
03:20 AM 50.4°F10.2°C 49.0°F9.4°C 95% Calm Calm -- 30.51 in1033.2 mb - 0.00 in0.0 mm 0.00 in0.0 mm
03:30 AM 50.4°F10.2°C 49.0°F9.4°C 95% Calm Calm -- 30.51 in1033.2 mb - 0.00 in0.0 mm 0.00 in0.0 mm
03:40 AM 50.4°F10.2°C 49.0°F9.4°C 95% Calm Calm -- 30.51 in1033.2 mb - 0.00 in0.0 mm 0.00 in0.0 mm
03:50 AM 50.4°F10.2°C 49.0°F9.4°C 95% Calm Calm -- 30.51 in1033.2 mb - 0.00 in0.0 mm 0.00 in0.0 mm
04:00 AM 50.4°F10.2°C 49.0°F9.4°C 95% Calm Calm -- 30.51 in1033.2 mb - 0.00 in0.0 mm 0.00 in0.0 mm
04:10 AM 50.4°F10.2°C 49.0°F9.4°C 95% Calm Calm -- 30.51 in1033.2 mb - 0.00 in0.0 mm 0.00 in0.0 mm
04:20 AM 50.4°F10.2°C 49.0°F9.4°C 95% Calm Calm -- 30.51 in1033.2 mb - 0.00 in0.0 mm 0.00 in0.0 mm
04:30 AM 50.4°F10.2°C 49.0°F9.4°C 95% Calm Calm -- 30.51 in1033.2 mb - 0.00 in0.0 mm 0.00 in0.0 mm
04:40 AM 50.4°F10.2°C 49.0°F9.4°C 95% Calm Calm -- 30.51 in1033.2 mb - 0.00 in0.0 mm 0.00 in0.0 mm
04:50 AM 50.4°F10.2°C 49.0°F9.4°C 95% Calm Calm -- 30.51 in1033.2 mb - 0.00 in0.0 mm 0.00 in0.0 mm
05:00 AM 50.4°F10.2°C 49.0°F9.4°C 95% Calm Calm -- 30.51 in1033.2 mb - 0.00 in0.0 mm 0.00 in0.0 mm
05:10 AM 50.4°F10.2°C 49.0°F9.4°C 95% Calm Calm -- 30.51 in1033.2 mb - 0.00 in0.0 mm 0.00 in0.0 mm
05:20 AM 50.4°F10.2°C 49.0°F9.4°C 95% Calm Calm -- 30.51 in1033.2 mb - 0.00 in0.0 mm 0.00 in0.0 mm
05:30 AM 50.4°F10.2°C 49.0°F9.4°C 95% Calm Calm -- 30.51 in1033.2 mb - 0.00 in0.0 mm 0.00 in0.0 mm
05:40 AM 50.4°F10.2°C 49.0°F9.4°C 95% Calm Calm -- 30.51 in1033.2 mb - 0.00 in0.0 mm 0.00 in0.0 mm
05:50 AM 50.4°F10.2°C 49.0°F9.4°C 95% Calm Calm -- 30.51 in1033.2 mb - 0.00 in0.0 mm 0.00 in0.0 mm
06:00 AM 50.4°F10.2°C 49.0°F9.4°C 95% Calm Calm -- 30.51 in1033.2 mb - 0.00 in0.0 mm 0.00 in0.0 mm
06:10 AM 50.4°F10.2°C 49.0°F9.4°C 95% Calm Calm -- 30.51 in1033.2 mb - 0.00 in0.0 mm 0.00 in0.0 mm
06:20 AM 50.4°F10.2°C 49.0°F9.4°C 95% Calm Calm -- 30.51 in1033.2 mb - 0.00 in0.0 mm 0.00 in0.0 mm
06:30 AM 50.4°F10.2°C 49.0°F9.4°C 95% Calm Calm -- 30.51 in1033.2 mb - 0.00 in0.0 mm 0.00 in0.0 mm
06:40 AM 50.4°F10.2°C 49.0°F9.4°C 95% Calm Calm -- 30.51 in1033.2 mb - 0.00 in0.0 mm 0.00 in0.0 mm
06:50 AM 50.4°F10.2°C 49.0°F9.4°C 95% Calm Calm -- 30.51 in1033.2 mb - 0.00 in0.0 mm 0.00 in0.0 mm
07:00 AM 50.4°F10.2°C 49.0°F9.4°C 95% Calm Calm -- 30.51 in1033.2 mb - 0.00 in0.0 mm 0.00 in0.0 mm
07:10 AM 50.4°F10.2°C 49.0°F9.4°C 95% Calm Calm -- 30.51 in1033.2 mb - 0.00 in0.0 mm 0.00 in0.0 mm
07:20 AM 50.4°F10.2°C 49.0°F9.4°C 95% Calm Calm -- 30.51 in1033.2 mb - 0.00 in0.0 mm 0.00 in0.0 mm
07:30 AM 47.9°F8.8°C 46.5°F8.1°C 95% Calm Calm 1.1 mph1.8 kmh 30.48 in1032.2 mb - 0.00 in0.0 mm 0.00 in0.0 mm
07:40 AM 47.7°F8.7°C 46.3°F7.9°C 95% Calm Calm -- 30.48 in1032.2 mb - 0.00 in0.0 mm 0.00 in0.0 mm
07:50 AM 47.4°F8.6°C 46.0°F7.8°C 95% 3.5 mph W5.6 kmh W 3.5 mph5.6 kmh 30.48 in1032.2 mb - 0.00 in0.0 mm 0.00 in0.0 mm
08:00 AM 47.3°F8.5°C 46.0°F7.8°C 95% 1.1 mph W1.8 kmh W 2.3 mph3.7 kmh 30.48 in1032.2 mb - 0.00 in0.0 mm 0.00 in0.0 mm
08:10 AM 47.3°F8.5°C 45.9°F7.7°C 95% Calm Calm -- 30.48 in1032.2 mb - 0.00 in0.0 mm 0.00 in0.0 mm
08:20 AM 47.3°F8.5°C 45.9°F7.7°C 95% Calm Calm -- 30.48 in1032.2 mb - 0.00 in0.0 mm 0.00 in0.0 mm
08:30 AM 47.2°F8.4°C 45.9°F7.7°C 95% Calm Calm -- 30.48 in1032.2 mb - 0.00 in0.0 mm 0.00 in0.0 mm
08:40 AM 47.2°F8.4°C 45.8°F7.7°C 95% 2.3 mph WNW3.7 kmh WNW 3.5 mph5.6 kmh 30.48 in1032.2 mb - 0.00 in0.0 mm 0.00 in0.0 mm
08:50 AM 47.3°F8.5°C 45.9°F7.7°C 95% 2.3 mph SW3.7 kmh SW 3.5 mph5.6 kmh 30.49 in1032.5 mb - 0.00 in0.0 mm 0.00 in0.0 mm
09:00 AM 47.5°F8.6°C 46.1°F7.8°C 95% 2.3 mph SW3.7 kmh SW 3.5 mph5.6 kmh 30.50 in1032.8 mb - 0.00 in0.0 mm 0.00 in0.0 mm
09:10 AM 47.6°F8.7°C 46.2°F7.9°C 95% 1.1 mph SSW1.8 kmh SSW 2.3 mph3.7 kmh 30.50 in1032.8 mb - 0.00 in0.0 mm 0.00 in0.0 mm
09:20 AM 47.7°F8.7°C 46.3°F7.9°C 95% 3.5 mph WSW5.6 kmh WSW 3.5 mph5.6 kmh 30.49 in1032.5 mb - 0.00 in0.0 mm 0.00 in0.0 mm
09:30 AM 47.9°F8.8°C 46.5°F8.1°C 95% 1.1 mph SW1.8 kmh SW 2.3 mph3.7 kmh 30.50 in1032.8 mb - 0.00 in0.0 mm 0.00 in0.0 mm
09:40 AM 48.1°F8.9°C 46.7°F8.2°C 95% Calm Calm 2.3 mph3.7 kmh 30.50 in1032.8 mb - 0.00 in0.0 mm 0.00 in0.0 mm
09:50 AM 48.2°F9.0°C 46.9°F8.3°C 95% 2.3 mph SW3.7 kmh SW 5.8 mph9.3 kmh 30.50 in1032.8 mb - 0.00 in0.0 mm 0.00 in0.0 mm
10:00 AM 48.5°F9.2°C 47.1°F8.4°C 95% 2.3 mph SW3.7 kmh SW 3.5 mph5.6 kmh 30.51 in1033.2 mb - 0.00 in0.0 mm 0.00 in0.0 mm
10:10 AM 48.8°F9.3°C 47.4°F8.6°C 95% 1.1 mph WSW1.8 kmh WSW 2.3 mph3.7 kmh 30.51 in1033.2 mb - 0.00 in0.0 mm 0.00 in0.0 mm
10:20 AM 49.0°F9.4°C 47.6°F8.7°C 95% Calm Calm 2.3 mph3.7 kmh 30.50 in1032.8 mb - 0.00 in0.0 mm 0.00 in0.0 mm
10:30 AM 49.2°F9.6°C 47.8°F8.8°C 95% 1.1 mph NE1.8 kmh NE 1.1 mph1.8 kmh 30.50 in1032.8 mb - 0.00 in0.0 mm 0.00 in0.0 mm
10:40 AM 49.5°F9.7°C 48.1°F8.9°C 95% 1.1 mph NE1.8 kmh NE 1.1 mph1.8 kmh 30.50 in1032.8 mb - 0.00 in0.0 mm 0.00 in0.0 mm
10:50 AM 49.6°F9.8°C 48.3°F9.1°C 95% Calm Calm -- 30.50 in1032.8 mb - 0.00 in0.0 mm 0.00 in0.0 mm
11:00 AM 50.0°F10.0°C 48.6°F9.2°C 95% Calm Calm -- 30.51 in1033.2 mb - 0.00 in0.0 mm 0.00 in0.0 mm
11:10 AM 50.3°F10.2°C 48.9°F9.4°C 95% 1.1 mph NE1.8 kmh NE 2.3 mph3.7 kmh 30.51 in1033.2 mb - 0.00 in0.0 mm 0.00 in0.0 mm
11:20 AM 50.6°F10.3°C 49.2°F9.6°C 95% Calm Calm 2.3 mph3.7 kmh 30.51 in1033.2 mb - 0.00 in0.0 mm 0.00 in0.0 mm
11:30 AM 51.0°F10.6°C 49.6°F9.8°C 95% 2.3 mph NE3.7 kmh NE 3.5 mph5.6 kmh 30.51 in1033.2 mb - 0.00 in0.0 mm 0.00 in0.0 mm
11:40 AM 51.4°F10.8°C 49.7°F9.8°C 94% 1.1 mph NE1.8 kmh NE 3.5 mph5.6 kmh 30.51 in1033.2 mb - 0.00 in0.0 mm 0.00 in0.0 mm
11:50 AM 51.6°F10.9°C 49.9°F9.9°C 94% 1.1 mph NE1.8 kmh NE 2.3 mph3.7 kmh 30.51 in1033.2 mb - 0.00 in0.0 mm 0.00 in0.0 mm
12:00 PM 52.1°F11.2°C 50.1°F10.1°C 93% 1.1 mph NE1.8 kmh NE 1.1 mph1.8 kmh 30.51 in1033.2 mb - 0.00 in0.0 mm 0.00 in0.0 mm
12:10 PM 52.5°F11.4°C 50.5°F10.3°C 93% Calm Calm 1.1 mph1.8 kmh 30.50 in1032.8 mb - 0.00 in0.0 mm 0.00 in0.0 mm
12:20 PM 52.9°F11.6°C 50.7°F10.4°C 92% Calm Calm 1.1 mph1.8 kmh 30.50 in1032.8 mb - 0.00 in0.0 mm 0.00 in0.0 mm
12:30 PM 53.3°F11.8°C 50.4°F10.2°C 90% Calm Calm -- 30.50 in1032.8 mb - 0.00 in0.0 mm 0.00 in0.0 mm
12:40 PM 53.5°F11.9°C 50.0°F10.0°C 88% 1.1 mph NE1.8 kmh NE 1.1 mph1.8 kmh 30.49 in1032.5 mb - 0.00 in0.0 mm 0.00 in0.0 mm
12:50 PM 53.9°F12.2°C 50.1°F10.1°C 87% Calm Calm -- 30.49 in1032.5 mb - 0.00 in0.0 mm 0.00 in0.0 mm
01:00 PM 54.1°F12.3°C 50.1°F10.1°C 86% 1.1 mph NE1.8 kmh NE 2.3 mph3.7 kmh 30.49 in1032.5 mb - 0.00 in0.0 mm 0.00 in0.0 mm
01:10 PM 54.5°F12.5°C 50.4°F10.2°C 86% Calm Calm -- 30.49 in1032.5 mb - 0.00 in0.0 mm 0.00 in0.0 mm
01:20 PM 54.5°F12.5°C 50.0°F10.0°C 85% 1.1 mph W1.8 kmh W 1.1 mph1.8 kmh 30.48 in1032.2 mb - 0.00 in0.0 mm 0.00 in0.0 mm
01:30 PM 54.8°F12.7°C 50.7°F10.4°C 86% Calm Calm 1.1 mph1.8 kmh 30.48 in1032.2 mb - 0.00 in0.0 mm 0.00 in0.0 mm
01:40 PM 54.6°F12.6°C 49.9°F9.9°C 84% 1.1 mph N1.8 kmh N 3.5 mph5.6 kmh 30.47 in1031.8 mb - 0.00 in0.0 mm 0.00 in0.0 mm
01:50 PM 55.0°F12.8°C 49.9°F9.9°C 83% 1.1 mph NW1.8 kmh NW 2.3 mph3.7 kmh 30.47 in1031.8 mb - 0.00 in0.0 mm 0.00 in0.0 mm
02:00 PM 55.3°F12.9°C 49.9°F9.9°C 82% Calm Calm 3.5 mph5.6 kmh 30.47 in1031.8 mb - 0.00 in0.0 mm 0.00 in0.0 mm
02:10 PM 55.4°F13.0°C 50.3°F10.2°C 83% 2.3 mph WNW3.7 kmh WNW 4.6 mph7.4 kmh 30.46 in1031.5 mb - 0.00 in0.0 mm 0.00 in0.0 mm
02:20 PM 55.5°F13.1°C 50.7°F10.4°C 84% 3.5 mph NW5.6 kmh NW 3.5 mph5.6 kmh 30.46 in1031.5 mb - 0.00 in0.0 mm 0.00 in0.0 mm
02:30 PM 55.8°F13.2°C 51.4°F10.8°C 85% 4.6 mph WSW7.4 kmh WSW 8.1 mph13.0 kmh 30.45 in1031.2 mb - 0.00 in0.0 mm 0.00 in0.0 mm
02:40 PM 55.7°F13.2°C 50.9°F10.5°C 84% 1.1 mph W1.8 kmh W 4.6 mph7.4 kmh 30.45 in1031.2 mb - 0.00 in0.0 mm 0.00 in0.0 mm
02:50 PM 55.6°F13.1°C 51.2°F10.7°C 85% 1.1 mph WSW1.8 kmh WSW 1.1 mph1.8 kmh 30.45 in1031.2 mb - 0.00 in0.0 mm 0.00 in0.0 mm
03:00 PM 55.7°F13.2°C 51.3°F10.7°C 85% 2.3 mph WSW3.7 kmh WSW 4.6 mph7.4 kmh 30.45 in1031.2 mb - 0.00 in0.0 mm 0.00 in0.0 mm
03:10 PM 55.7°F13.2°C 51.3°F10.7°C 85% 1.1 mph WNW1.8 kmh WNW 1.1 mph1.8 kmh 30.45 in1031.2 mb - 0.00 in0.0 mm 0.00 in0.0 mm
03:20 PM 55.7°F13.2°C 51.2°F10.7°C 85% Calm Calm 1.1 mph1.8 kmh 30.45 in1031.2 mb - 0.00 in0.0 mm 0.00 in0.0 mm
03:30 PM 55.4°F13.0°C 51.0°F10.6°C 85% Calm Calm 4.6 mph7.4 kmh 30.45 in1031.2 mb - 0.00 in0.0 mm 0.00 in0.0 mm
03:40 PM 55.2°F12.9°C 50.8°F10.4°C 85% 3.5 mph SW5.6 kmh SW 6.9 mph11.1 kmh 30.45 in1031.2 mb - 0.00 in0.0 mm 0.00 in0.0 mm
03:50 PM 55.0°F12.8°C 50.9°F10.5°C 86% 2.3 mph SW3.7 kmh SW 3.5 mph5.6 kmh 30.45 in1031.2 mb - 0.00 in0.0 mm 0.00 in0.0 mm
04:00 PM 55.0°F12.8°C 50.9°F10.5°C 86% Calm Calm 2.3 mph3.7 kmh 30.45 in1031.2 mb - 0.00 in0.0 mm 0.00 in0.0 mm
04:10 PM 55.0°F12.8°C 50.9°F10.5°C 86% 3.5 mph WSW5.6 kmh WSW 5.8 mph9.3 kmh 30.45 in1031.2 mb - 0.00 in0.0 mm 0.00 in0.0 mm
04:20 PM 55.2°F12.9°C 50.8°F10.4°C 85% 1.1 mph W1.8 kmh W 3.5 mph5.6 kmh 30.45 in1031.2 mb - 0.00 in0.0 mm 0.00 in0.0 mm
04:30 PM 55.2°F12.9°C 50.4°F10.2°C 84% Calm Calm 1.1 mph1.8 kmh 30.45 in1031.2 mb - 0.00 in0.0 mm 0.00 in0.0 mm
04:40 PM 55.2°F12.9°C 50.1°F10.1°C 83% Calm Calm 2.3 mph3.7 kmh 30.44 in1030.8 mb - 0.00 in0.0 mm 0.00 in0.0 mm
04:50 PM 55.1°F12.8°C 50.0°F10.0°C 83% 4.6 mph WNW7.4 kmh WNW 4.6 mph7.4 kmh 30.45 in1031.2 mb - 0.00 in0.0 mm 0.00 in0.0 mm
05:00 PM 55.1°F12.8°C 50.0°F10.0°C 83% Calm Calm 1.1 mph1.8 kmh 30.45 in1031.2 mb - 0.00 in0.0 mm 0.00 in0.0 mm
05:10 PM 55.1°F12.8°C 50.1°F10.1°C 83% 2.3 mph SW3.7 kmh SW 4.6 mph7.4 kmh 30.45 in1031.2 mb - 0.00 in0.0 mm 0.00 in0.0 mm
05:20 PM 55.2°F12.9°C 50.1°F10.1°C 83% 1.1 mph SW1.8 kmh SW 4.6 mph7.4 kmh 30.45 in1031.2 mb - 0.00 in0.0 mm 0.00 in0.0 mm
05:30 PM 55.1°F12.8°C 50.0°F10.0°C 83% 1.1 mph SW1.8 kmh SW 3.5 mph5.6 kmh 30.45 in1031.2 mb - 0.00 in0.0 mm 0.00 in0.0 mm
05:40 PM 55.0°F12.8°C 50.3°F10.2°C 84% Calm Calm -- 30.46 in1031.5 mb - 0.00 in0.0 mm 0.00 in0.0 mm
05:50 PM 54.9°F12.7°C 50.2°F10.1°C 84% Calm Calm 1.1 mph1.8 kmh 30.46 in1031.5 mb - 0.00 in0.0 mm 0.00 in0.0 mm
06:00 PM 54.6°F12.6°C 49.9°F9.9°C 84% Calm Calm -- 30.46 in1031.5 mb - 0.00 in0.0 mm 0.00 in0.0 mm
06:10 PM 54.3°F12.4°C 49.2°F9.6°C 83% Calm Calm -- 30.46 in1031.5 mb - 0.00 in0.0 mm 0.00 in0.0 mm
06:20 PM 54.1°F12.3°C 49.1°F9.5°C 83% Calm Calm 1.1 mph1.8 kmh 30.46 in1031.5 mb - 0.00 in0.0 mm 0.00 in0.0 mm
06:30 PM 53.9°F12.2°C 48.5°F9.2°C 82% Calm Calm 1.1 mph1.8 kmh 30.46 in1031.5 mb - 0.00 in0.0 mm 0.00 in0.0 mm
06:40 PM 53.7°F12.1°C 48.3°F9.1°C 82% Calm Calm -- 30.46 in1031.5 mb - 0.00 in0.0 mm 0.00 in0.0 mm
06:50 PM 53.6°F12.0°C 48.2°F9.0°C 82% Calm Calm -- 30.46 in1031.5 mb - 0.00 in0.0 mm 0.00 in0.0 mm
07:00 PM 53.3°F11.8°C 48.0°F8.9°C 82% Calm Calm -- 30.46 in1031.5 mb - 0.00 in0.0 mm 0.00 in0.0 mm
07:10 PM 53.1°F11.7°C 47.7°F8.7°C 82% 1.1 mph N1.8 kmh N 1.1 mph1.8 kmh 30.47 in1031.8 mb - 0.00 in0.0 mm 0.00 in0.0 mm
07:20 PM 52.9°F11.6°C 47.2°F8.4°C 81% Calm Calm -- 30.47 in1031.8 mb - 0.00 in0.0 mm 0.00 in0.0 mm
07:30 PM 53.0°F11.7°C 47.7°F8.7°C 82% Calm Calm -- 30.47 in1031.8 mb - 0.00 in0.0 mm 0.00 in0.0 mm
07:40 PM 52.9°F11.6°C 47.6°F8.7°C 82% Calm Calm -- 30.47 in1031.8 mb - 0.00 in0.0 mm 0.00 in0.0 mm
07:50 PM 52.8°F11.6°C 47.8°F8.8°C 83% Calm Calm -- 30.47 in1031.8 mb - 0.00 in0.0 mm 0.00 in0.0 mm
08:00 PM 52.7°F11.5°C 47.7°F8.7°C 83% Calm Calm -- 30.48 in1032.2 mb - 0.00 in0.0 mm 0.00 in0.0 mm
08:10 PM 52.6°F11.4°C 47.6°F8.7°C 83% Calm Calm -- 30.48 in1032.2 mb - 0.00 in0.0 mm 0.00 in0.0 mm
08:20 PM 52.5°F11.4°C 47.8°F8.8°C 84% Calm Calm -- 30.48 in1032.2 mb - 0.00 in0.0 mm 0.00 in0.0 mm
08:30 PM 52.4°F11.3°C 48.0°F8.9°C 85% Calm Calm -- 30.48 in1032.2 mb - 0.00 in0.0 mm 0.00 in0.0 mm
08:40 PM 52.2°F11.2°C 48.1°F8.9°C 86% Calm Calm -- 30.48 in1032.2 mb - 0.00 in0.0 mm 0.00 in0.0 mm
08:50 PM 52.0°F11.1°C 48.3°F9.1°C 87% Calm Calm -- 30.47 in1031.8 mb - 0.00 in0.0 mm 0.00 in0.0 mm
09:00 PM 51.9°F11.1°C 48.2°F9.0°C 87% Calm Calm -- 30.47 in1031.8 mb - 0.00 in0.0 mm 0.00 in0.0 mm
09:10 PM 51.8°F11.0°C 48.4°F9.1°C 88% Calm Calm -- 30.47 in1031.8 mb - 0.00 in0.0 mm 0.00 in0.0 mm
09:20 PM 51.5°F10.8°C 48.1°F8.9°C 88% Calm Calm -- 30.47 in1031.8 mb - 0.00 in0.0 mm 0.00 in0.0 mm
09:30 PM 51.2°F10.7°C 47.5°F8.6°C 87% Calm Calm -- 30.47 in1031.8 mb - 0.00 in0.0 mm 0.00 in0.0 mm
09:40 PM 51.2°F10.7°C 47.8°F8.8°C 88% Calm Calm 1.1 mph1.8 kmh 30.47 in1031.8 mb - 0.00 in0.0 mm 0.00 in0.0 mm
09:50 PM 51.2°F10.7°C 47.8°F8.8°C 88% Calm Calm -- 30.46 in1031.5 mb - 0.00 in0.0 mm 0.00 in0.0 mm
10:00 PM 51.2°F10.7°C 48.1°F8.9°C 89% Calm Calm -- 30.46 in1031.5 mb - 0.00 in0.0 mm 0.00 in0.0 mm
10:10 PM 51.1°F10.6°C 48.0°F8.9°C 89% Calm Calm -- 30.46 in1031.5 mb - 0.00 in0.0 mm 0.00 in0.0 mm
10:20 PM 51.0°F10.6°C 48.2°F9.0°C 90% Calm Calm -- 30.46 in1031.5 mb - 0.00 in0.0 mm 0.00 in0.0 mm
10:30 PM 51.0°F10.6°C 48.2°F9.0°C 90% 1.1 mph NW1.8 kmh NW 3.5 mph5.6 kmh 30.46 in1031.5 mb - 0.00 in0.0 mm 0.00 in0.0 mm
10:40 PM 51.0°F10.6°C 48.5°F9.2°C 91% Calm Calm 1.1 mph1.8 kmh 30.47 in1031.8 mb - 0.00 in0.0 mm 0.00 in0.0 mm
11:00 PM 50.9°F10.5°C 48.6°F9.2°C 92% 2.3 mph WSW3.7 kmh WSW 3.5 mph5.6 kmh 30.47 in1031.8 mb - 0.00 in0.0 mm 0.00 in0.0 mm
11:10 PM 50.8°F10.4°C 48.5°F9.2°C 92% 1.1 mph WSW1.8 kmh WSW 2.3 mph3.7 kmh 30.46 in1031.5 mb - 0.00 in0.0 mm 0.00 in0.0 mm
11:20 PM 50.6°F10.3°C 48.4°F9.1°C 92% Calm Calm -- 30.46 in1031.5 mb - 0.00 in0.0 mm 0.00 in0.0 mm
11:30 PM 50.5°F10.3°C 48.2°F9.0°C 92% Calm Calm -- 30.47 in1031.8 mb - 0.00 in0.0 mm 0.00 in0.0 mm
11:40 PM 50.3°F10.2°C 48.1°F8.9°C 92% Calm Calm -- 30.47 in1031.8 mb - 0.00 in0.0 mm 0.00 in0.0 mm
11:50 PM 50.2°F10.1°C 47.9°F8.8°C 92% Calm Calm -- 30.46 in1031.5 mb - 0.00 in0.0 mm 0.00 in0.0 mm